Impacts METAR Board
IDs:

KIAH - Houston/Bush Intl, TX, US

Updated at: 2100 UTC 21 May 2022
Potential Impact None Slight Moderate High
Time 21/09Z 21/10Z 21/11Z 21/12Z 21/13Z 21/14Z 21/15Z 21/16Z 21/17Z 21/18Z 21/19Z 21/20Z 21/21Z
Temp81 80 80 80 82 84 86 89 90 92 91 92 93
Dewpt74 74 74 74 75 73 73 72 74 74 76 76 74
Altim29.78 29.79 29.80 29.81 29.84 29.87 29.88 29.88 29.89 29.89 29.89 29.88 29.86
VIS10 10 10 10 9 10 10 10 10 10 10 10 10
CIG36 35 200 -- -- 32 35 -- -- 50 55 55 --
CoverOVCOVCBKNFEWSCTBKNBKNFEWSCTBKNBKNBKNSCT
FltCatVFRVFRVFRVFRVFRVFRVFRVFRVFRVFRVFRVFRVFR
WX--------------------------
WDir160130160130160160160160150160150140140
WSpd8 12 8 12 9 11 14 15 16 15 13 14 17
WGst-- -- -- -- -- 20 20 21 19 24 21 -- 26
Raw hourly METARs
KIAH 210853Z 16008KT 10SM SCT025 BKN036 OVC250 27/23 A2978 RMK AO2 SLP083 T02720233 50002
KIAH 210953Z 13012KT 10SM SCT026 BKN035 OVC200 27/23 A2979 RMK AO2 SLP086 T02670233
KIAH 211053Z 16008KT 10SM SCT026 BKN200 27/23 A2980 RMK AO2 SLP091 T02670233
KIAH 211153Z 13012KT 10SM FEW021 27/23 A2981 RMK AO2 SLP093 T02670233 10278 20261 51009
KIAH 211253Z 16009KT 9SM SCT018 28/24 A2984 RMK AO2 SLP104 T02780239
KIAH 211353Z 16011G20KT 10SM SCT022 BKN032 29/23 A2987 RMK AO2 SLP112 T02890228
KIAH 211453Z 16014G20KT 10SM SCT024 BKN035 30/23 A2988 RMK AO2 PK WND 15026/1443 SLP117 T03000228 51024
KIAH 211553Z 16015G21KT 10SM FEW035 32/22 A2988 RMK AO2 SLP118 T03170222
KIAH 211653Z 15016G19KT 10SM SCT037 32/23 A2989 RMK AO2 SLP119 T03220233
KIAH 211753Z 16015G24KT 10SM SCT037 BKN050 33/23 A2989 RMK AO2 SLP120 T03330233 10333 20267 51003
KIAH 211853Z 15013G21KT 10SM SCT036 BKN055 33/24 A2989 RMK AO2 SLP119 T03280244
KIAH 211953Z 14014KT 10SM SCT036 BKN055 33/24 A2988 RMK AO2 SLP115 T03330244
KIAH 212053Z 14017G26KT 10SM SCT038 34/23 A2986 RMK AO2 PK WND 15026/2044 SLP109 T03390233 58010



Page loaded:  21:57 UTC  |   02:57 PM Pacific  |   03:57 PM Mountain  |   04:57 PM Central  |   05:57 PM Eastern

 

ADVISORIES

FORECASTS

FORECASTS

OBSERVATIONS

USER TOOLS

ABOUT US